Time;durP1;ratioP1;P1;durP2;ratioP2;P2;SDS_P1;SDS_P2;PMS_P1;PMS_P2;Temp;Humidity;BMP_temperature;BMP_pressure;BME280_temperature;BME280_humidity;BME280_pressure;Samples;Min_cycle;Max_cycle;Signal;HPM_P1;HPM_P2
2021/01/05 00:00:07;;;;;;;5.72;4.85;;;5.40;99.90;;;;;;5091343;28;20250;-83
2021/01/05 00:02:33;;;;;;;7.63;6.15;;;5.40;99.90;;;;;;5091906;28;20197;-84
2021/01/05 00:04:59;;;;;;;7.47;6.68;;;5.40;99.90;;;;;;5088032;28;20212;-83
2021/01/05 00:07:25;;;;;;;5.72;5.07;;;5.40;99.90;;;;;;5077183;28;20679;-84
2021/01/05 00:09:52;;;;;;;7.07;5.82;;;5.40;99.90;;;;;;5076918;28;20189;-84
2021/01/05 00:12:19;;;;;;;6.45;5.85;;;5.40;99.90;;;;;;5073748;28;20216;-84
2021/01/05 00:14:48;;;;;;;6.57;5.97;;;5.40;99.90;;;;;;5071153;28;20194;-84
2021/01/05 00:17:16;;;;;;;6.93;5.90;;;5.40;99.90;;;;;;5084047;28;20239;-78
2021/01/05 00:19:42;;;;;;;7.20;6.35;;;5.40;99.90;;;;;;5074042;28;20202;-81
2021/01/05 00:22:09;;;;;;;7.55;6.75;;;5.40;99.90;;;;;;5075334;28;20194;-83
2021/01/05 00:24:35;;;;;;;8.48;7.10;;;5.40;99.90;;;;;;5066581;28;20205;-84
2021/01/05 00:27:02;;;;;;;8.82;7.18;;;5.40;99.90;;;;;;5059423;28;20210;-84
2021/01/05 00:29:29;;;;;;;8.68;7.13;;;5.40;99.90;;;;;;5078309;28;20193;-77
2021/01/05 00:32:04;;;;;;;8.73;7.07;;;5.40;99.90;;;;;;5084866;28;20558;-77
2021/01/05 00:34:30;;;;;;;6.43;5.82;;;5.40;99.90;;;;;;5069693;28;20677;-78
2021/01/05 00:36:56;;;;;;;7.63;6.40;;;5.30;99.90;;;;;;5070970;28;20284;-77
2021/01/05 00:39:23;;;;;;;7.60;6.50;;;5.30;99.90;;;;;;5076388;28;20191;-79
2021/01/05 00:41:49;;;;;;;7.30;6.50;;;5.30;99.90;;;;;;5087184;28;20201;-80
2021/01/05 00:44:16;;;;;;;7.68;6.57;;;5.30;99.90;;;;;;5083877;28;20209;-78
2021/01/05 00:46:43;;;;;;;8.32;6.40;;;5.30;99.90;;;;;;5078399;28;20190;-80
2021/01/05 00:49:09;;;;;;;7.88;6.45;;;5.30;99.90;;;;;;5079695;28;20649;-80
2021/01/05 00:51:35;;;;;;;7.63;5.68;;;5.30;99.90;;;;;;5075272;28;20241;-80
2021/01/05 00:54:02;;;;;;;8.73;6.78;;;5.30;99.90;;;;;;5075201;28;20194;-79
2021/01/05 00:56:28;;;;;;;8.48;6.55;;;5.30;99.90;;;;;;5074840;28;20222;-79
2021/01/05 00:58:54;;;;;;;10.38;7.82;;;5.30;99.90;;;;;;5075325;28;20206;-80
2021/01/05 01:01:21;;;;;;;10.48;8.73;;;5.30;99.90;;;;;;5074205;28;20225;-80
2021/01/05 01:03:49;;;;;;;7.85;6.97;;;5.40;99.90;;;;;;5093306;28;20208;-81
2021/01/05 01:06:15;;;;;;;8.73;6.70;;;5.30;99.90;;;;;;5091905;28;20221;-81
2021/01/05 01:08:42;;;;;;;9.20;7.53;;;5.30;99.90;;;;;;5076358;28;20199;-81
2021/01/05 01:11:08;;;;;;;8.43;6.93;;;5.30;99.90;;;;;;5075365;28;20205;-81
2021/01/05 01:13:34;;;;;;;10.07;7.88;;;5.30;99.90;;;;;;5074199;28;20197;-81
2021/01/05 01:16:00;;;;;;;8.43;7.07;;;5.30;99.90;;;;;;5080509;28;20221;-81
2021/01/05 01:18:27;;;;;;;8.35;7.18;;;5.30;99.90;;;;;;5079543;28;20568;-80
2021/01/05 01:20:54;;;;;;;8.65;7.40;;;5.30;99.90;;;;;;5074537;28;20650;-81
2021/01/05 01:23:20;;;;;;;10.68;7.68;;;5.30;99.90;;;;;;5075414;28;20202;-81
2021/01/05 01:25:47;;;;;;;8.52;7.32;;;5.20;99.90;;;;;;5081475;28;20197;-81
2021/01/05 01:28:14;;;;;;;9.20;7.25;;;5.30;99.90;;;;;;5087885;28;20194;-81
2021/01/05 01:30:40;;;;;;;10.23;8.13;;;5.30;99.90;;;;;;5074691;28;20209;-81
2021/01/05 01:33:06;;;;;;;9.02;7.60;;;5.30;99.90;;;;;;5084639;28;20209;-81
2021/01/05 01:35:33;;;;;;;9.70;7.85;;;5.30;99.90;;;;;;5085248;28;20278;-81
2021/01/05 01:38:00;;;;;;;10.20;6.80;;;5.30;99.90;;;;;;5086885;28;20229;-81
2021/01/05 01:40:34;;;;;;;9.88;7.85;;;5.20;99.90;;;;;;5089742;28;20703;-81
2021/01/05 01:43:02;;;;;;;11.02;8.13;;;5.20;99.90;;;;;;5093412;28;20186;-81
2021/01/05 01:45:28;;;;;;;8.23;6.93;;;5.20;99.90;;;;;;5079682;28;20309;-81
2021/01/05 01:47:55;;;;;;;8.55;7.28;;;5.30;99.90;;;;;;5079325;28;20205;-81
2021/01/05 01:50:25;;;;;;;8.95;7.57;;;5.30;99.90;;;;;;5093458;28;20193;-81
2021/01/05 01:53:14;;;;;;;9.80;7.35;;;5.30;99.90;;;;;;5086436;28;20210;-81
2021/01/05 01:55:53;;;;;;;10.43;8.15;;;5.30;99.90;;;;;;5082597;28;20213;-80
2021/01/05 01:58:57;;;;;;;10.20;8.20;;;5.30;99.90;;;;;;5093550;28;20197;-79
2021/01/05 02:01:38;;;;;;;11.68;7.47;;;5.30;99.90;;;;;;5076696;28;20205;-80
2021/01/05 02:04:25;;;;;;;9.30;7.03;;;5.30;99.90;;;;;;5074050;28;20201;-81
2021/01/05 02:07:14;;;;;;;10.40;8.40;;;5.30;99.90;;;;;;5082371;28;20196;-78
2021/01/05 02:09:57;;;;;;;11.20;8.10;;;5.30;99.90;;;;;;5090447;28;20621;-79
2021/01/05 02:12:30;;;;;;;11.55;8.55;;;5.20;99.90;;;;;;5080146;28;20568;-79
2021/01/05 02:15:07;;;;;;;11.32;8.73;;;5.20;99.90;;;;;;5076977;28;20200;-79
2021/01/05 02:18:00;;;;;;;12.90;8.93;;;5.30;99.90;;;;;;5073353;28;20196;-80
2021/01/05 02:20:30;;;;;;;10.75;7.75;;;5.30;99.90;;;;;;5073793;28;20205;-81
2021/01/05 02:23:10;;;;;;;10.10;7.68;;;5.30;99.90;;;;;;5072893;28;20199;-79
2021/01/05 02:25:57;;;;;;;11.18;8.18;;;5.30;99.90;;;;;;5088325;28;20189;-80
2021/01/05 02:28:32;;;;;;;8.57;7.40;;;5.30;99.90;;;;;;5080362;28;20193;-79
2021/01/05 02:31:03;;;;;;;8.75;7.45;;;5.30;99.90;;;;;;5091338;28;20181;-80
2021/01/05 02:33:41;;;;;;;9.88;7.10;;;5.30;99.90;;;;;;5089097;28;20258;-79
2021/01/05 02:36:27;;;;;;;8.82;6.43;;;5.40;99.90;;;;;;5073331;28;20206;-80
2021/01/05 02:39:19;;;;;;;10.35;8.75;;;5.40;99.90;;;;;;5083799;28;20204;-79
2021/01/05 02:42:05;;;;;;;10.02;7.60;;;5.30;99.90;;;;;;5086850;28;20631;-80
2021/01/05 02:44:37;;;;;;;11.02;7.60;;;5.30;99.90;;;;;;5080703;28;20205;-81
2021/01/05 02:47:14;;;;;;;11.07;7.65;;;5.30;99.90;;;;;;5088450;28;20191;-80
2021/01/05 02:49:45;;;;;;;10.35;8.20;;;5.30;99.90;;;;;;5086723;28;20193;-80
2021/01/05 02:52:49;;;;;;;13.15;8.10;;;5.30;99.90;;;;;;5072922;28;20258;-80
2021/01/05 02:56:01;;;;;;;10.80;8.30;;;5.20;99.90;;;;;;5073217;28;20674;-80
2021/01/05 02:58:56;;;;;;;12.05;8.63;;;5.20;99.90;;;;;;5075560;28;20198;-81
2021/01/05 03:01:56;;;;;;;10.35;7.93;;;5.20;99.90;;;;;;5079127;28;20206;-80
2021/01/05 03:04:22;;;;;;;9.00;8.07;;;5.20;99.90;;;;;;5073357;28;20259;-81
2021/01/05 03:06:51;;;;;;;9.73;7.43;;;5.30;99.90;;;;;;5071880;28;20198;-79
2021/01/05 03:10:02;;;;;;;10.25;7.80;;;5.20;99.90;;;;;;5087594;28;20285;-79
2021/01/05 03:12:44;;;;;;;9.98;7.70;;;5.20;99.90;;;;;;5085844;28;20766;-80
2021/01/05 03:15:32;;;;;;;11.00;8.52;;;5.20;99.90;;;;;;5086903;28;20206;-80
2021/01/05 03:18:03;;;;;;;12.38;8.50;;;5.30;99.90;;;;;;5074913;28;20276;-80
2021/01/05 03:20:36;;;;;;;11.48;8.43;;;5.20;99.90;;;;;;5072638;28;20194;-81
2021/01/05 03:23:05;;;;;;;7.57;6.70;;;5.20;99.90;;;;;;5073066;28;20223;-80
2021/01/05 03:25:36;;;;;;;11.55;8.43;;;5.20;99.90;;;;;;5072066;28;20190;-81
2021/01/05 03:28:06;;;;;;;11.75;7.55;;;5.20;99.90;;;;;;5083936;28;20201;-81
2021/01/05 03:30:36;;;;;;;12.60;9.15;;;5.20;99.90;;;;;;5083758;28;20194;-81
2021/01/05 03:33:03;;;;;;;14.88;9.55;;;5.20;99.90;;;;;;5090637;28;20205;-81
2021/01/05 03:35:29;;;;;;;14.15;8.90;;;5.20;99.90;;;;;;5086317;28;20230;-80
2021/01/05 03:37:56;;;;;;;11.73;6.82;;;5.20;99.90;;;;;;5077602;28;20230;-81
2021/01/05 03:40:22;;;;;;;11.10;7.30;;;5.20;99.90;;;;;;5090948;28;20222;-81
2021/01/05 03:42:49;;;;;;;12.13;8.35;;;5.20;99.90;;;;;;5090318;28;20193;-81
2021/01/05 03:45:19;;;;;;;14.48;9.75;;;5.20;99.90;;;;;;5090152;28;20617;-81
2021/01/05 03:47:46;;;;;;;13.20;8.77;;;5.20;99.90;;;;;;5079226;28;20201;-81
2021/01/05 03:50:13;;;;;;;10.98;8.60;;;5.20;99.90;;;;;;5085614;28;20200;-81
2021/01/05 03:52:39;;;;;;;11.95;8.55;;;5.20;99.90;;;;;;5073833;28;20202;-81
2021/01/05 03:55:07;;;;;;;10.32;8.27;;;5.20;99.90;;;;;;5091143;28;20354;-81
2021/01/05 03:57:33;;;;;;;9.88;7.32;;;5.20;99.90;;;;;;5090198;28;20201;-81
2021/01/05 03:59:59;;;;;;;9.63;8.10;;;5.20;99.90;;;;;;5084371;28;20205;-81
2021/01/05 04:02:26;;;;;;;13.02;8.80;;;5.20;99.90;;;;;;5090088;28;20211;-81
2021/01/05 04:04:53;;;;;;;14.40;8.40;;;5.30;99.90;;;;;;5092480;28;20197;-81
2021/01/05 04:07:20;;;;;;;12.80;8.65;;;5.30;99.90;;;;;;5077864;28;20288;-79
2021/01/05 04:09:46;;;;;;;14.00;9.50;;;5.30;99.90;;;;;;5090580;28;20201;-80
2021/01/05 04:12:12;;;;;;;12.43;8.32;;;5.20;99.90;;;;;;5087606;28;20533;-80
2021/01/05 04:14:38;;;;;;;12.90;9.57;;;5.30;99.90;;;;;;5076810;28;20208;-80
2021/01/05 04:17:05;;;;;;;14.20;9.30;;;5.30;99.90;;;;;;5084767;28;20223;-80
2021/01/05 04:19:31;;;;;;;10.52;7.68;;;5.20;99.90;;;;;;5082169;28;20202;-80
2021/01/05 04:21:58;;;;;;;13.45;8.27;;;5.20;99.90;;;;;;5091732;28;20810;-80
2021/01/05 04:24:24;;;;;;;14.95;10.45;;;5.20;99.90;;;;;;5075835;28;20205;-80
2021/01/05 04:26:51;;;;;;;10.68;8.23;;;5.20;99.90;;;;;;5075375;28;20198;-80
2021/01/05 04:29:17;;;;;;;15.75;8.20;;;5.30;99.90;;;;;;5077628;28;20190;-80
2021/01/05 04:31:44;;;;;;;9.85;8.60;;;5.20;99.90;;;;;;5090361;28;20200;-81
2021/01/05 04:34:12;;;;;;;10.25;7.80;;;5.30;99.90;;;;;;5091779;28;20201;-80
2021/01/05 04:36:39;;;;;;;14.60;8.43;;;5.30;99.90;;;;;;5076154;28;20217;-80
2021/01/05 04:39:07;;;;;;;9.88;7.35;;;5.20;99.90;;;;;;5085410;28;20197;-81
2021/01/05 04:41:42;;;;;;;14.07;9.07;;;5.30;99.90;;;;;;5074233;28;20196;-81
2021/01/05 04:44:13;;;;;;;15.00;9.77;;;5.30;99.90;;;;;;5075105;28;20198;-81
2021/01/05 04:46:53;;;;;;;10.48;8.57;;;5.20;99.90;;;;;;5077532;28;20193;-80
2021/01/05 04:49:52;;;;;;;14.15;10.10;;;5.20;99.90;;;;;;5081838;28;20201;-81
2021/01/05 04:52:26;;;;;;;14.25;10.07;;;5.20;99.90;;;;;;5068766;28;20760;-80
2021/01/05 04:54:58;;;;;;;14.55;9.00;;;5.10;99.90;;;;;;5085954;28;20691;-80
2021/01/05 04:57:27;;;;;;;13.75;9.48;;;5.20;99.90;;;;;;5074997;28;20244;-80
2021/01/05 04:59:58;;;;;;;14.07;9.52;;;5.20;99.90;;;;;;5074856;28;20288;-82
2021/01/05 05:02:43;;;;;;;12.45;9.50;;;5.20;99.90;;;;;;5082199;28;20274;-82
2021/01/05 05:05:31;;;;;;;15.90;9.50;;;5.20;99.90;;;;;;5093848;28;20193;-79
2021/01/05 05:08:09;;;;;;;11.93;8.85;;;5.20;99.90;;;;;;5074774;28;20190;-80
2021/01/05 05:10:41;;;;;;;17.23;11.20;;;5.30;99.90;;;;;;5075863;28;20197;-80
2021/01/05 05:13:14;;;;;;;15.98;9.93;;;5.20;99.90;;;;;;5095405;28;20181;-81
2021/01/05 05:15:46;;;;;;;14.57;9.82;;;5.20;99.90;;;;;;5091345;28;20700;-81
2021/01/05 05:18:32;;;;;;;15.13;10.40;;;5.20;99.90;;;;;;5085658;28;20201;-81
2021/01/05 05:21:09;;;;;;;16.13;10.63;;;5.20;99.90;;;;;;5083081;28;20617;-79
2021/01/05 05:23:49;;;;;;;14.25;9.95;;;5.20;99.90;;;;;;5077674;28;20189;-79
2021/01/05 05:26:22;;;;;;;14.70;10.65;;;5.20;99.90;;;;;;5074283;28;20188;-80
2021/01/05 05:28:54;;;;;;;15.90;10.80;;;5.20;99.90;;;;;;5075185;28;20634;-80
2021/01/05 05:31:23;;;;;;;15.88;10.27;;;5.20;99.90;;;;;;5081634;28;20267;-80
2021/01/05 05:33:54;;;;;;;11.40;8.30;;;5.20;99.90;;;;;;5079325;28;20224;-79
2021/01/05 05:36:36;;;;;;;16.20;10.85;;;5.20;99.90;;;;;;5080820;28;20213;-80
2021/01/05 05:39:22;;;;;;;13.35;9.75;;;5.30;99.90;;;;;;5086125;28;20238;-80
2021/01/05 05:42:00;;;;;;;14.60;9.90;;;5.20;99.90;;;;;;5078157;28;20533;-81
2021/01/05 05:44:32;;;;;;;13.60;9.35;;;5.30;99.90;;;;;;5077983;28;20197;-80
2021/01/05 05:47:04;;;;;;;14.23;10.23;;;5.20;99.90;;;;;;5084883;28;20197;-80
2021/01/05 05:49:49;;;;;;;15.40;10.48;;;5.20;99.90;;;;;;5079733;28;20198;-79
2021/01/05 05:52:27;;;;;;;14.13;10.48;;;5.10;99.90;;;;;;5074098;28;20200;-79
2021/01/05 05:54:56;;;;;;;16.70;10.50;;;5.10;99.90;;;;;;5078008;28;20203;-80
2021/01/05 05:57:40;;;;;;;20.45;12.85;;;5.20;99.90;;;;;;5082843;28;20676;-79
2021/01/05 06:00:36;;;;;;;17.58;12.18;;;5.20;99.90;;;;;;5083748;28;20193;-82
2021/01/05 06:03:04;;;;;;;14.65;10.63;;;5.20;99.90;;;;;;5069188;28;20201;-82
2021/01/05 06:05:33;;;;;;;19.13;11.45;;;5.20;99.90;;;;;;5079037;28;20247;-81
2021/01/05 06:07:59;;;;;;;17.88;11.18;;;5.20;99.90;;;;;;5082788;28;20193;-82
2021/01/05 06:10:26;;;;;;;17.90;12.35;;;5.20;99.90;;;;;;5081094;28;20190;-81
2021/01/05 06:12:54;;;;;;;17.65;12.02;;;5.20;99.90;;;;;;5089057;28;20201;-80
2021/01/05 06:15:21;;;;;;;17.40;11.52;;;5.20;99.90;;;;;;5081022;28;20211;-80
2021/01/05 06:17:47;;;;;;;17.23;11.43;;;5.20;99.90;;;;;;5079279;28;20197;-80
2021/01/05 06:20:14;;;;;;;19.55;11.48;;;5.20;99.90;;;;;;5080126;28;20728;-81
2021/01/05 06:22:41;;;;;;;18.73;12.10;;;5.20;99.90;;;;;;5093487;28;20637;-81
2021/01/05 06:25:08;;;;;;;18.73;12.18;;;5.20;99.90;;;;;;5084338;28;20197;-82
2021/01/05 06:27:34;;;;;;;20.77;12.07;;;5.20;99.90;;;;;;5081096;28;20278;-80
2021/01/05 06:30:02;;;;;;;17.95;12.35;;;5.20;99.90;;;;;;5075805;28;20194;-81
2021/01/05 06:32:28;;;;;;;16.88;11.50;;;5.20;99.90;;;;;;5076174;28;20212;-81
2021/01/05 06:34:54;;;;;;;18.58;11.88;;;5.20;99.90;;;;;;5086941;28;20198;-80
2021/01/05 06:37:20;;;;;;;17.00;11.82;;;5.20;99.90;;;;;;5078373;28;20704;-80
2021/01/05 06:39:47;;;;;;;16.27;10.48;;;5.10;99.90;;;;;;5078117;28;20200;-79
2021/01/05 06:42:15;;;;;;;21.02;12.90;;;5.10;99.90;;;;;;5078275;28;20198;-80
2021/01/05 06:44:42;;;;;;;16.02;10.40;;;5.10;99.90;;;;;;5078973;28;20652;-80
2021/01/05 06:47:09;;;;;;;18.50;12.23;;;5.10;99.90;;;;;;5081881;28;20189;-80
2021/01/05 06:49:36;;;;;;;16.70;10.68;;;5.10;99.90;;;;;;5083553;28;20220;-80
2021/01/05 06:52:04;;;;;;;17.50;11.00;;;5.20;99.90;;;;;;5080888;28;20269;-80
2021/01/05 06:54:30;;;;;;;21.52;12.07;;;5.20;99.90;;;;;;5073891;28;20209;-79
2021/01/05 06:56:58;;;;;;;16.90;10.63;;;5.10;99.90;;;;;;5087413;28;20217;-77
2021/01/05 06:59:26;;;;;;;18.48;13.05;;;5.20;99.90;;;;;;5084550;28;20198;-78
2021/01/05 07:01:54;;;;;;;15.80;10.60;;;5.20;99.90;;;;;;5086660;28;20198;-78
2021/01/05 07:04:21;;;;;;;17.25;10.20;;;5.20;99.90;;;;;;5081157;28;20209;-77
2021/01/05 07:06:48;;;;;;;21.30;11.23;;;5.20;99.90;;;;;;5084642;28;20190;-77
2021/01/05 07:09:16;;;;;;;17.00;11.05;;;5.20;99.90;;;;;;5085011;28;20190;-78
2021/01/05 07:11:43;;;;;;;15.07;10.60;;;5.20;99.90;;;;;;5077521;28;20197;-77
2021/01/05 07:14:11;;;;;;;17.73;10.30;;;5.30;99.90;;;;;;5081086;28;20207;-77
2021/01/05 07:16:37;;;;;;;18.25;10.90;;;5.30;99.90;;;;;;5074496;28;20570;-77
2021/01/05 07:19:03;;;;;;;17.20;11.02;;;5.20;99.90;;;;;;5085054;28;20201;-79
2021/01/05 07:21:30;;;;;;;18.77;11.80;;;5.20;99.90;;;;;;5078951;28;20208;-76
2021/01/05 07:23:57;;;;;;;17.73;10.93;;;5.20;99.90;;;;;;5079479;28;20258;-78
2021/01/05 07:26:23;;;;;;;21.90;13.57;;;5.30;99.90;;;;;;5082531;28;20194;-77
2021/01/05 07:28:49;;;;;;;18.80;10.90;;;5.20;99.90;;;;;;5079415;28;20295;-79
2021/01/05 07:31:16;;;;;;;16.42;11.23;;;5.10;99.90;;;;;;5083766;28;20203;-76
2021/01/05 07:33:42;;;;;;;18.55;10.82;;;5.20;99.90;;;;;;5087162;28;20202;-76
2021/01/05 07:36:17;;;;;;;28.73;12.88;;;5.10;99.90;;;;;;5084947;28;20210;-77
2021/01/05 07:38:44;;;;;;;16.50;10.57;;;5.10;99.90;;;;;;5077588;28;20536;-78
2021/01/05 07:41:11;;;;;;;21.20;10.70;;;5.10;99.90;;;;;;5077221;28;20633;-77
2021/01/05 07:43:37;;;;;;;15.75;10.90;;;5.10;99.90;;;;;;5087164;28;20194;-78
2021/01/05 07:46:04;;;;;;;16.75;11.35;;;5.10;99.90;;;;;;5082473;28;20769;-77
2021/01/05 07:48:30;;;;;;;18.75;12.13;;;5.20;99.90;;;;;;5083093;28;20201;-78
2021/01/05 07:50:56;;;;;;;18.95;11.95;;;5.20;99.90;;;;;;5082410;28;20635;-79
2021/01/05 07:53:23;;;;;;;18.77;11.82;;;5.20;99.90;;;;;;5071497;28;20194;-79
2021/01/05 07:55:50;;;;;;;17.35;10.93;;;5.20;99.90;;;;;;5075638;28;20217;-78
2021/01/05 07:58:16;;;;;;;15.27;10.15;;;5.10;99.90;;;;;;5076906;28;20246;-79
2021/01/05 08:00:42;;;;;;;18.08;10.90;;;5.10;99.90;;;;;;5080473;28;20251;-78
2021/01/05 08:03:11;;;;;;;18.73;11.02;;;5.10;99.90;;;;;;5082969;28;20244;-78
2021/01/05 08:05:37;;;;;;;15.20;10.63;;;5.10;99.90;;;;;;5081880;28;20198;-78
2021/01/05 08:08:04;;;;;;;13.15;9.32;;;5.20;99.90;;;;;;5077566;28;20319;-78
2021/01/05 08:10:32;;;;;;;20.40;11.27;;;5.20;99.90;;;;;;5079179;28;20669;-78
2021/01/05 08:13:00;;;;;;;17.30;11.82;;;5.20;99.90;;;;;;5080541;28;20293;-78
2021/01/05 08:15:29;;;;;;;16.65;11.20;;;5.20;99.90;;;;;;5077646;28;20552;-79
2021/01/05 08:17:55;;;;;;;20.30;11.73;;;5.20;99.90;;;;;;5076081;28;20198;-79
2021/01/05 08:20:23;;;;;;;15.10;10.45;;;5.10;99.90;;;;;;5079776;28;20206;-79
2021/01/05 08:22:51;;;;;;;18.75;11.65;;;5.10;99.90;;;;;;5071652;28;20204;-80
2021/01/05 08:25:18;;;;;;;19.25;9.85;;;5.20;99.90;;;;;;5081815;28;20236;-80
2021/01/05 08:27:48;;;;;;;14.23;9.20;;;5.20;99.90;;;;;;5076761;28;20198;-80
2021/01/05 08:30:18;;;;;;;16.73;11.32;;;5.20;99.90;;;;;;5084007;28;20190;-80
2021/01/05 08:32:45;;;;;;;17.33;11.85;;;5.20;99.90;;;;;;5082164;28;20201;-80
2021/01/05 08:35:12;;;;;;;17.42;11.93;;;5.20;99.90;;;;;;5079409;28;20688;-79
2021/01/05 08:37:39;;;;;;;20.45;12.02;;;5.10;99.90;;;;;;5080873;28;20228;-80
2021/01/05 08:40:09;;;;;;;17.10;11.38;;;5.10;99.90;;;;;;5084010;28;20208;-80
2021/01/05 08:42:36;;;;;;;21.23;11.48;;;5.10;99.90;;;;;;5080210;28;20229;-81
2021/01/05 08:45:03;;;;;;;21.13;11.55;;;5.10;99.90;;;;;;5074771;28;20210;-80
2021/01/05 08:47:30;;;;;;;23.23;13.57;;;5.20;99.90;;;;;;5076022;28;20426;-79
2021/01/05 08:49:56;;;;;;;18.25;10.45;;;5.20;99.90;;;;;;5081786;28;20190;-80
2021/01/05 08:52:22;;;;;;;23.02;12.68;;;5.10;99.90;;;;;;5082280;28;20197;-80
2021/01/05 08:54:49;;;;;;;22.75;12.40;;;5.10;99.90;;;;;;5089505;28;20193;-80
2021/01/05 08:57:15;;;;;;;16.25;11.00;;;5.10;99.90;;;;;;5073134;28;20255;-80
2021/01/05 08:59:45;;;;;;;20.98;11.90;;;5.10;99.90;;;;;;5071103;28;20190;-79
2021/01/05 09:02:11;;;;;;;17.80;11.55;;;5.10;99.90;;;;;;5078852;28;20200;-78
2021/01/05 09:04:38;;;;;;;20.52;11.40;;;5.10;99.90;;;;;;5079380;28;20193;-78
2021/01/05 09:07:05;;;;;;;19.20;11.23;;;5.20;99.90;;;;;;5081502;28;20201;-79
2021/01/05 09:09:31;;;;;;;19.42;11.68;;;5.10;99.90;;;;;;5074487;28;20206;-78
2021/01/05 09:11:59;;;;;;;22.67;12.85;;;5.10;99.90;;;;;;5079160;28;20190;-79
2021/01/05 09:14:26;;;;;;;15.85;10.88;;;5.10;99.90;;;;;;5076500;28;20205;-78
2021/01/05 09:16:56;;;;;;;22.15;14.15;;;5.10;99.90;;;;;;5089407;28;20213;-77
2021/01/05 09:19:23;;;;;;;22.70;11.80;;;5.10;99.90;;;;;;5090285;28;20540;-75
2021/01/05 09:21:50;;;;;;;20.55;11.93;;;5.10;99.90;;;;;;5074491;28;20203;-79
2021/01/05 09:24:17;;;;;;;23.77;10.52;;;5.20;99.90;;;;;;5074704;28;20198;-78
2021/01/05 09:26:43;;;;;;;16.83;10.35;;;5.10;99.90;;;;;;5074744;28;20194;-77
2021/01/05 09:29:11;;;;;;;18.48;12.23;;;5.20;99.90;;;;;;5075313;28;20198;-78
2021/01/05 09:31:41;;;;;;;21.58;12.50;;;5.20;99.90;;;;;;5074656;28;20197;-78
2021/01/05 09:34:07;;;;;;;17.15;10.98;;;5.10;99.90;;;;;;5074688;28;20197;-78
2021/01/05 09:36:35;;;;;;;20.55;11.00;;;5.20;99.90;;;;;;5074561;28;20249;-78
2021/01/05 09:39:04;;;;;;;20.90;11.50;;;5.10;99.90;;;;;;5074475;28;20206;-78
2021/01/05 09:41:35;;;;;;;18.65;11.20;;;5.10;99.90;;;;;;5075934;28;20213;-78
2021/01/05 09:44:01;;;;;;;17.17;12.05;;;5.10;99.90;;;;;;5086327;28;20782;-78
2021/01/05 09:46:27;;;;;;;18.17;11.18;;;5.00;99.90;;;;;;5074284;28;20192;-78
2021/01/05 09:48:54;;;;;;;20.05;11.45;;;5.10;99.90;;;;;;5073969;28;20250;-77
2021/01/05 09:51:22;;;;;;;15.93;11.45;;;5.10;99.90;;;;;;5074249;28;20221;-78
2021/01/05 09:53:48;;;;;;;17.13;11.40;;;5.20;99.90;;;;;;5082721;28;20194;-78
2021/01/05 09:56:16;;;;;;;16.60;10.65;;;5.10;99.90;;;;;;5075544;28;20218;-78
2021/01/05 09:58:42;;;;;;;27.27;13.48;;;5.20;99.90;;;;;;5081571;28;20528;-77
2021/01/05 10:01:08;;;;;;;26.13;13.07;;;5.00;99.90;;;;;;5094195;28;20198;-76
2021/01/05 10:03:35;;;;;;;19.77;11.57;;;4.90;99.90;;;;;;5086279;28;20197;-76
2021/01/05 10:06:01;;;;;;;20.52;11.40;;;5.00;99.90;;;;;;5093108;28;20190;-76
2021/01/05 10:08:27;;;;;;;21.02;11.93;;;5.10;99.90;;;;;;5092067;28;20266;-76
2021/01/05 10:10:54;;;;;;;20.40;10.27;;;5.20;99.90;;;;;;5093819;28;20197;-76
2021/01/05 10:13:21;;;;;;;17.23;11.80;;;5.20;99.90;;;;;;5091778;28;20201;-76
2021/01/05 10:15:48;;;;;;;19.38;11.80;;;5.20;99.90;;;;;;5093050;28;20189;-76
2021/01/05 10:18:14;;;;;;;19.98;11.38;;;5.20;99.90;;;;;;5081857;28;20191;-76
2021/01/05 10:20:40;;;;;;;18.60;11.50;;;5.30;99.90;;;;;;5073658;28;20206;-77
2021/01/05 10:23:07;;;;;;;19.88;12.20;;;5.20;99.90;;;;;;5079208;28;20194;-76
2021/01/05 10:25:34;;;;;;;17.63;10.85;;;5.20;99.90;;;;;;5093652;28;20250;-76
2021/01/05 10:28:00;;;;;;;19.40;12.13;;;5.20;99.90;;;;;;5082616;28;20351;-78
2021/01/05 10:30:28;;;;;;;20.42;11.32;;;5.20;99.90;;;;;;5075797;28;20198;-78
2021/01/05 10:32:54;;;;;;;25.08;13.73;;;5.20;99.90;;;;;;5082634;28;20287;-78
2021/01/05 10:35:23;;;;;;;23.25;13.30;;;5.20;99.90;;;;;;5073023;28;20515;-78
2021/01/05 10:37:50;;;;;;;22.63;13.85;;;5.20;99.90;;;;;;5072873;28;20217;-78
2021/01/05 10:40:19;;;;;;;23.13;13.30;;;5.20;99.90;;;;;;5080025;28;20190;-78
2021/01/05 10:42:47;;;;;;;19.38;13.02;;;5.10;99.90;;;;;;5072897;28;20198;-77
2021/01/05 10:45:18;;;;;;;18.58;12.18;;;5.20;99.90;;;;;;5072128;28;20205;-78
2021/01/05 10:47:45;;;;;;;24.48;12.98;;;5.10;99.90;;;;;;5075477;28;20243;-78
2021/01/05 10:50:15;;;;;;;25.55;13.85;;;5.10;99.90;;;;;;5091411;28;20190;-78
2021/01/05 10:52:41;;;;;;;20.08;12.23;;;5.10;99.90;;;;;;5072848;28;20205;-77
2021/01/05 10:55:08;;;;;;;21.40;12.63;;;5.10;99.90;;;;;;5086749;28;20632;-78
2021/01/05 10:57:35;;;;;;;23.80;12.38;;;5.20;99.90;;;;;;5090747;28;20743;-77
2021/01/05 11:00:01;;;;;;;20.70;13.52;;;5.30;99.90;;;;;;5077311;28;20200;-78
2021/01/05 11:02:27;;;;;;;21.92;13.35;;;5.20;99.90;;;;;;5072737;28;20202;-78
2021/01/05 11:04:54;;;;;;;20.70;12.55;;;5.20;99.90;;;;;;5091077;28;20255;-78
2021/01/05 11:07:21;;;;;;;19.92;12.55;;;5.20;99.90;;;;;;5092662;28;20189;-78
2021/01/05 11:09:47;;;;;;;19.90;12.10;;;5.20;99.90;;;;;;5090097;28;20193;-78
2021/01/05 11:12:21;;;;;;;22.80;13.27;;;5.20;99.90;;;;;;5091865;28;20250;-77
2021/01/05 11:14:47;;;;;;;25.60;13.68;;;5.30;99.90;;;;;;5074952;28;20189;-78
2021/01/05 11:17:13;;;;;;;25.00;13.57;;;5.20;99.90;;;;;;5089773;28;20273;-77
2021/01/05 11:19:42;;;;;;;20.65;11.88;;;5.20;99.90;;;;;;5090600;28;20602;-77
2021/01/05 11:22:14;;;;;;;22.95;12.75;;;5.20;99.90;;;;;;5080519;28;20602;-77
2021/01/05 11:24:41;;;;;;;25.30;13.93;;;5.10;99.90;;;;;;5073048;28;20198;-78
2021/01/05 11:27:08;;;;;;;21.48;12.18;;;5.20;99.90;;;;;;5074121;28;20832;-78
2021/01/05 11:29:36;;;;;;;20.48;11.75;;;5.20;99.90;;;;;;5079283;28;20519;-78
2021/01/05 11:32:04;;;;;;;22.38;13.25;;;5.10;99.90;;;;;;5083879;28;20697;-77
2021/01/05 11:34:31;;;;;;;18.63;12.40;;;5.10;99.90;;;;;;5085330;28;20212;-79
2021/01/05 11:37:01;;;;;;;23.45;13.88;;;5.10;99.90;;;;;;5086542;28;20232;-78
2021/01/05 11:39:28;;;;;;;25.45;14.02;;;5.20;99.90;;;;;;5071751;28;20210;-78
2021/01/05 11:41:57;;;;;;;22.75;14.40;;;5.20;99.90;;;;;;5072198;28;20190;-76
2021/01/05 11:44:24;;;;;;;23.83;14.60;;;5.10;99.90;;;;;;5085229;28;20201;-80
2021/01/05 11:46:50;;;;;;;19.98;12.45;;;4.90;99.90;;;;;;5090610;28;20287;-80
2021/01/05 11:49:16;;;;;;;29.38;17.00;;;5.10;99.90;;;;;;5081047;28;20194;-79
2021/01/05 11:51:43;;;;;;;20.20;13.10;;;5.20;99.90;;;;;;5071999;28;20292;-79
2021/01/05 11:54:10;;;;;;;20.85;14.25;;;5.20;99.90;;;;;;5072554;28;20196;-79
2021/01/05 11:56:37;;;;;;;20.23;13.95;;;5.30;99.90;;;;;;5089345;28;20217;-79
2021/01/05 11:59:05;;;;;;;20.88;12.90;;;5.30;99.90;;;;;;5091014;28;20204;-79
2021/01/05 12:01:36;;;;;;;20.58;12.07;;;5.40;99.90;;;;;;5087414;28;20598;-81
2021/01/05 12:04:03;;;;;;;21.42;13.13;;;5.40;99.90;;;;;;5079220;28;20640;-88
2021/01/05 12:06:29;;;;;;;23.27;11.45;;;5.40;99.90;;;;;;5071758;28;20277;-80
2021/01/05 12:08:56;;;;;;;19.77;13.40;;;5.40;99.90;;;;;;5075717;28;20203;-81
2021/01/05 12:11:24;;;;;;;20.15;11.40;;;5.40;99.90;;;;;;5091712;28;20536;-81
2021/01/05 12:13:52;;;;;;;19.40;12.35;;;5.40;99.90;;;;;;5092097;28;20212;-81
2021/01/05 12:16:26;;;;;;;20.75;13.07;;;5.40;99.90;;;;;;5090558;28;20213;-82
2021/01/05 12:18:53;;;;;;;20.75;11.65;;;5.40;99.90;;;;;;5092633;28;20180;-81
2021/01/05 12:21:24;;;;;;;16.75;11.68;;;5.40;99.90;;;;;;5091845;28;20228;-82
2021/01/05 12:23:50;;;;;;;18.50;12.13;;;5.30;99.90;;;;;;5090575;28;20207;-81
2021/01/05 12:26:27;;;;;;;26.20;14.23;;;5.30;99.90;;;;;;5090397;28;20626;-82
2021/01/05 12:28:54;;;;;;;19.63;11.85;;;5.20;99.90;;;;;;5091115;28;20225;-82
2021/01/05 12:31:21;;;;;;;18.73;12.55;;;5.30;99.90;;;;;;5091664;28;20602;-82
2021/01/05 12:33:47;;;;;;;17.67;11.93;;;5.30;99.90;;;;;;5091952;28;20201;-81
2021/01/05 12:36:23;;;;;;;21.20;12.00;;;5.30;99.90;;;;;;5090457;28;20217;-81
2021/01/05 12:38:49;;;;;;;20.05;11.57;;;5.30;99.90;;;;;;5090674;28;20216;-82
2021/01/05 12:41:15;;;;;;;24.60;13.10;;;5.20;99.90;;;;;;5095577;28;20254;-82
2021/01/05 12:43:42;;;;;;;18.88;12.13;;;5.20;99.90;;;;;;5077577;28;20202;-82
2021/01/05 12:46:10;;;;;;;17.83;11.77;;;5.30;99.90;;;;;;5075051;28;20935;-81
2021/01/05 12:48:36;;;;;;;17.83;11.15;;;5.30;99.90;;;;;;5083047;28;20201;-81
2021/01/05 12:51:03;;;;;;;18.85;11.15;;;5.40;99.90;;;;;;5095273;28;20250;-81
2021/01/05 12:53:29;;;;;;;17.75;11.25;;;5.40;99.90;;;;;;5095372;28;20265;-76
2021/01/05 12:55:55;;;;;;;17.00;10.98;;;5.40;99.90;;;;;;5092771;28;20228;-81